createdAt,value
2022-08-07T00:00:43.170Z,100785.98
2022-08-07T00:03:47.416Z,100786.86
2022-08-07T00:06:51.763Z,100789.90
2022-08-07T00:10:19.002Z,100793.23
2022-08-07T00:13:25.854Z,100792.55
2022-08-07T00:16:30.573Z,100790.33
2022-08-07T00:20:00.979Z,100790.73
2022-08-07T00:22:57.196Z,100794.98
2022-08-07T00:26:13.405Z,100795.92
2022-08-07T00:29:31.254Z,100796.42
2022-08-07T00:32:35.270Z,100796.10
2022-08-07T00:35:38.761Z,100795.98
2022-08-07T00:38:41.827Z,100797.96
2022-08-07T00:42:02.079Z,100798.36
2022-08-07T00:45:16.135Z,100794.44
2022-08-07T00:48:19.815Z,100792.70
2022-08-07T00:51:56.969Z,100790.80
2022-08-07T00:54:59.631Z,100791.58
2022-08-07T00:58:08.172Z,100787.59
2022-08-07T01:01:11.948Z,100789.94
2022-08-07T01:04:24.791Z,100786.80
2022-08-07T01:07:29.287Z,100790.11
2022-08-07T01:10:32.700Z,100785.90
2022-08-07T01:13:38.129Z,100784.61
2022-08-07T01:16:42.929Z,100785.64
2022-08-07T01:19:54.403Z,100784.44
2022-08-07T01:23:00.789Z,100780.71
2022-08-07T01:26:19.524Z,100781.96
2022-08-07T01:29:28.014Z,100781.02
2022-08-07T01:32:34.716Z,100776.05
2022-08-07T01:35:53.398Z,100774.98
2022-08-07T01:38:58.278Z,100773.54
2022-08-07T01:42:36.766Z,100773.69
2022-08-07T01:45:36.295Z,100773.54
2022-08-07T01:48:48.269Z,100776.73
2022-08-07T01:52:01.619Z,100776.43
2022-08-07T01:55:11.285Z,100775.33
2022-08-07T01:58:33.321Z,100777.69
2022-08-07T02:01:59.634Z,100775.84
2022-08-07T02:05:47.891Z,100776.02
2022-08-07T02:08:42.782Z,100774.95
2022-08-07T02:12:04.090Z,100772.23
2022-08-07T02:15:14.495Z,100774.20
2022-08-07T02:18:22.102Z,100775.49
2022-08-07T02:21:56.191Z,100779.02
2022-08-07T02:24:56.823Z,100778.98
2022-08-07T02:28:01.767Z,100776.81
2022-08-07T02:31:28.492Z,100777.54
2022-08-07T02:34:37.698Z,100779.69
2022-08-07T02:37:53.657Z,100780.30
2022-08-07T02:40:58.408Z,100782.47
2022-08-07T02:44:04.259Z,100785.35
2022-08-07T02:47:08.764Z,100784.80
2022-08-07T02:50:23.306Z,100788.51
2022-08-07T02:53:39.731Z,100790.13
2022-08-07T02:56:46.850Z,100793.02
2022-08-07T02:59:54.906Z,100794.09
2022-08-07T03:03:07.648Z,100793.65
2022-08-07T03:06:26.201Z,100796.23
2022-08-07T03:09:44.697Z,100797.94
2022-08-07T03:13:20.606Z,100795.55
2022-08-07T03:16:27.823Z,100797.55
2022-08-07T03:19:36.936Z,100791.21
2022-08-07T03:22:42.458Z,100791.57
2022-08-07T03:25:58.223Z,100793.05
2022-08-07T03:29:11.024Z,100791.05
2022-08-07T03:32:17.087Z,100790.58
2022-08-07T03:35:26.166Z,100791.00
2022-08-07T03:43:13.551Z,100792.89
2022-08-07T03:46:18.779Z,100790.65
2022-08-07T03:49:22.199Z,100792.50
2022-08-07T03:52:30.038Z,100791.19
2022-08-07T03:56:33.204Z,100792.95
2022-08-07T04:00:37.906Z,100787.12
2022-08-07T04:03:55.071Z,100791.89
2022-08-07T04:07:18.161Z,100794.85
2022-08-07T04:10:26.203Z,100795.05
2022-08-07T04:14:10.055Z,100798.44
2022-08-07T04:16:58.589Z,100800.17
2022-08-07T04:20:02.032Z,100798.73
2022-08-07T04:23:06.233Z,100800.86
2022-08-07T04:26:09.923Z,100801.73
2022-08-07T04:29:14.846Z,100803.53
2022-08-07T04:32:33.910Z,100799.48
2022-08-07T04:35:39.002Z,100797.98
2022-08-07T04:38:42.072Z,100799.05
2022-08-07T04:41:50.422Z,100800.77
2022-08-07T04:45:57.905Z,100800.40
2022-08-07T04:49:28.307Z,100803.98
2022-08-07T04:52:55.106Z,100802.38
2022-08-07T04:58:12.545Z,100806.80
2022-08-07T05:00:12.559Z,100807.20
2022-08-07T05:04:00.282Z,100811.08
2022-08-07T05:07:19.770Z,100814.52
2022-08-07T05:10:33.664Z,100815.41
2022-08-07T05:14:53.901Z,100819.36
2022-08-07T05:17:14.198Z,100817.77
2022-08-07T05:20:42.845Z,100821.59
2022-08-07T05:23:50.361Z,100824.16
2022-08-07T05:26:58.873Z,100824.29
2022-08-07T05:30:03.641Z,100825.44
2022-08-07T05:33:22.686Z,100823.70
2022-08-07T05:36:30.379Z,100825.45
2022-08-07T05:40:14.269Z,100828.83
2022-08-07T05:43:02.018Z,100827.39
2022-08-07T05:46:06.633Z,100827.39
2022-08-07T05:49:12.957Z,100832.23
2022-08-07T05:52:20.337Z,100834.83
2022-08-07T05:55:25.421Z,100841.61
2022-08-07T05:58:52.754Z,100840.54
2022-08-07T06:01:59.461Z,100847.66
2022-08-07T06:05:07.690Z,100844.30
2022-08-07T06:13:16.622Z,100847.10
2022-08-07T06:16:22.752Z,100841.95
2022-08-07T06:19:57.799Z,100841.34
2022-08-07T06:23:02.139Z,100843.27
2022-08-07T06:26:21.722Z,100842.23
2022-08-07T06:29:31.400Z,100845.15
2022-08-07T06:32:35.555Z,100842.27
2022-08-07T06:36:06.244Z,100845.51
2022-08-07T06:40:16.869Z,100842.70
2022-08-07T06:42:40.061Z,100845.34
2022-08-07T06:45:44.860Z,100850.04
2022-08-07T06:48:50.599Z,100853.27
2022-08-07T06:51:59.568Z,100855.36
2022-08-07T06:55:31.196Z,100856.20
2022-08-07T07:00:12.928Z,100857.88
2022-08-07T07:02:54.613Z,100858.70
2022-08-07T07:06:03.730Z,100853.58
2022-08-07T07:09:24.928Z,100856.08
2022-08-07T07:12:41.856Z,100858.09
2022-08-07T07:16:00.579Z,100858.93
2022-08-07T07:19:19.007Z,100858.44
2022-08-07T07:22:36.590Z,100853.48
2022-08-07T07:26:34.226Z,100849.23
2022-08-07T07:29:38.638Z,100849.19
2022-08-07T07:32:40.645Z,100846.29
2022-08-07T07:36:04.733Z,100847.27
2022-08-07T07:39:11.753Z,100837.98
2022-08-07T07:42:25.680Z,100837.73
2022-08-07T07:46:37.201Z,100835.27
2022-08-07T07:48:59.964Z,100836.09
2022-08-07T07:52:17.492Z,100832.25
2022-08-07T07:55:22.955Z,100832.30
2022-08-07T07:58:40.775Z,100830.45
2022-08-07T08:02:04.142Z,100829.81
2022-08-07T08:05:17.057Z,100826.66
2022-08-07T08:08:36.187Z,100829.36
2022-08-07T08:11:59.632Z,100827.27
2022-08-07T08:15:07.002Z,100823.30
2022-08-07T08:18:17.777Z,100824.13
2022-08-07T08:21:55.702Z,100817.03
2022-08-07T08:25:42.594Z,100811.36
2022-08-07T08:28:52.118Z,100811.58
2022-08-07T08:32:17.225Z,100807.58
2022-08-07T08:35:42.909Z,100806.96
2022-08-07T08:38:51.729Z,100808.48
2022-08-07T08:42:05.225Z,100807.70
2022-08-07T08:45:59.197Z,100810.46
2022-08-07T08:54:12.279Z,100811.08
2022-08-07T08:57:30.341Z,100809.06
2022-08-07T09:00:48.381Z,100810.70
2022-08-07T09:05:07.030Z,100805.50
2022-08-07T09:08:58.217Z,100801.34
2022-08-07T09:12:31.223Z,100798.88
2022-08-07T09:16:50.265Z,100798.56
2022-08-07T09:20:01.868Z,100800.71
2022-08-07T09:24:54.740Z,100797.55
2022-08-07T09:28:00.268Z,100779.48
2022-08-07T09:31:48.536Z,100787.75
2022-08-07T09:35:04.573Z,100786.08
2022-08-07T09:38:41.934Z,100774.81
2022-08-07T09:42:04.079Z,100772.07
2022-08-07T09:47:49.576Z,100772.08
2022-08-07T09:50:02.027Z,100772.59
2022-08-07T09:53:02.633Z,100770.79
2022-08-07T09:56:34.042Z,100767.67
2022-08-07T10:00:00.726Z,100764.46
2022-08-07T10:04:06.452Z,100759.06
2022-08-07T10:06:56.973Z,100752.94
2022-08-07T10:10:28.276Z,100757.86
2022-08-07T10:14:06.826Z,100755.89
2022-08-07T10:18:01.572Z,100756.02
2022-08-07T10:21:19.745Z,100750.73
2022-08-07T10:24:54.530Z,100747.36
2022-08-07T10:28:23.903Z,100743.99
2022-08-07T10:31:31.548Z,100742.86
2022-08-07T10:34:54.716Z,100736.02
2022-08-07T10:38:36.108Z,100727.98
2022-08-07T10:42:09.711Z,100724.23
2022-08-07T10:45:44.377Z,100714.77
2022-08-07T10:49:15.238Z,100710.27
2022-08-07T10:52:21.077Z,100704.74
2022-08-07T10:56:11.034Z,100701.36
2022-08-07T10:59:37.286Z,100705.46
2022-08-07T11:02:56.636Z,100698.16
2022-08-07T11:06:18.362Z,100693.38
2022-08-07T11:10:10.234Z,100695.53
2022-08-07T11:14:45.030Z,100690.05
2022-08-07T11:16:59.416Z,100688.95
2022-08-07T11:20:16.839Z,100691.06
2022-08-07T11:23:48.498Z,100683.11
2022-08-07T11:27:03.981Z,100673.35
2022-08-07T11:30:18.248Z,100676.98
2022-08-07T11:33:59.297Z,100671.52
2022-08-07T11:37:03.551Z,100674.42
2022-08-07T11:40:36.732Z,100663.20
2022-08-07T11:44:12.082Z,100658.66
2022-08-07T11:47:55.979Z,100656.98
2022-08-07T11:51:41.157Z,100658.72
2022-08-07T11:55:13.004Z,100649.56
2022-08-07T11:58:50.957Z,100644.98
2022-08-07T12:02:20.708Z,100644.06
2022-08-07T12:05:47.512Z,100644.38
2022-08-07T12:09:05.622Z,100643.67
2022-08-07T12:12:18.059Z,100636.52
2022-08-07T12:15:46.688Z,100632.84
2022-08-07T12:19:06.885Z,100640.00
2022-08-07T12:22:58.475Z,100637.33
2022-08-07T12:26:29.991Z,100634.35
2022-08-07T12:29:51.773Z,100630.15
2022-08-07T12:33:22.954Z,100624.12
2022-08-07T12:36:35.167Z,100617.80
2022-08-07T12:39:50.549Z,100608.44
2022-08-07T12:43:00.207Z,100609.08
2022-08-07T12:46:43.256Z,100606.95
2022-08-07T12:50:04.969Z,100602.00
2022-08-07T12:53:17.333Z,100591.20
2022-08-07T12:56:37.011Z,100592.00
2022-08-07T12:59:54.235Z,100592.14
2022-08-07T13:03:59.151Z,100582.73
2022-08-07T13:08:12.283Z,100581.36
2022-08-07T13:10:59.776Z,100573.03
2022-08-07T13:14:31.617Z,100570.30
2022-08-07T13:17:49.915Z,100566.95
2022-08-07T13:21:09.779Z,100570.02
2022-08-07T13:24:25.893Z,100564.86
2022-08-07T13:28:13.765Z,100561.94
2022-08-07T13:31:21.219Z,100561.30
2022-08-07T13:34:35.458Z,100557.33
2022-08-07T13:37:58.961Z,100551.77
2022-08-07T13:41:47.443Z,100546.59
2022-08-07T13:45:20.586Z,100546.04
2022-08-07T13:48:27.376Z,100536.90
2022-08-07T13:52:22.943Z,100532.73
2022-08-07T13:55:10.762Z,100526.45
2022-08-07T13:58:35.481Z,100522.59
2022-08-07T14:01:51.639Z,100524.27
2022-08-07T14:05:12.274Z,100522.09
2022-08-07T14:08:16.331Z,100521.15
2022-08-07T14:11:23.546Z,100515.46
2022-08-07T14:14:49.389Z,100514.38
2022-08-07T14:18:15.964Z,100513.27
2022-08-07T14:22:01.890Z,100515.59
2022-08-07T14:25:07.182Z,100507.82
2022-08-07T14:28:14.329Z,100500.24
2022-08-07T14:31:19.320Z,100496.69
2022-08-07T14:34:30.453Z,100492.61
2022-08-07T14:37:39.861Z,100493.73
2022-08-07T14:40:49.319Z,100497.57
2022-08-07T14:43:58.780Z,100499.47
2022-08-07T14:47:14.565Z,100490.48
2022-08-07T14:50:22.813Z,100489.63
2022-08-07T14:56:57.815Z,100484.38
2022-08-07T15:00:08.456Z,100481.13
2022-08-07T15:03:16.644Z,100490.17
2022-08-07T15:06:30.147Z,100488.05
2022-08-07T15:10:00.025Z,100487.59
2022-08-07T15:13:16.051Z,100484.27
2022-08-07T15:16:31.040Z,100473.79
2022-08-07T15:26:55.845Z,100468.96
2022-08-07T15:30:16.670Z,100468.91
2022-08-07T15:33:21.342Z,100467.46
2022-08-07T15:37:03.732Z,100466.42
2022-08-07T15:40:11.528Z,100470.23
2022-08-07T15:46:51.960Z,100463.81
2022-08-07T15:53:48.599Z,100460.80
2022-08-07T15:57:00.802Z,100463.02
2022-08-07T16:00:06.356Z,100462.61
2022-08-07T16:03:21.447Z,100457.54
2022-08-07T16:06:53.293Z,100459.43
2022-08-07T16:10:14.770Z,100455.80
2022-08-07T16:14:00.000Z,100453.42
2022-08-07T16:18:01.599Z,100449.38
2022-08-07T16:21:44.145Z,100451.61
2022-08-07T16:24:34.768Z,100446.36
2022-08-07T16:27:58.508Z,100445.91
2022-08-07T16:31:50.321Z,100442.29
2022-08-07T16:34:56.191Z,100442.15
2022-08-07T16:38:16.590Z,100440.30
2022-08-07T16:42:00.375Z,100437.70
2022-08-07T16:46:07.823Z,100437.27
2022-08-07T16:50:26.872Z,100434.73
2022-08-07T16:53:14.973Z,100435.44
2022-08-07T16:57:01.189Z,100428.41
2022-08-07T17:00:14.983Z,100428.80
2022-08-07T17:03:57.767Z,100427.50
2022-08-07T17:07:55.729Z,100431.68
2022-08-07T17:10:56.829Z,100430.20
2022-08-07T17:14:17.844Z,100434.48
2022-08-07T17:17:45.988Z,100434.96
2022-08-07T17:20:54.819Z,100433.33
2022-08-07T17:24:23.810Z,100434.49
2022-08-07T17:27:51.166Z,100436.22
2022-08-07T17:31:16.465Z,100436.71
2022-08-07T17:34:35.478Z,100436.95
2022-08-07T17:38:09.307Z,100438.10
2022-08-07T17:42:02.104Z,100438.55
2022-08-07T17:45:20.114Z,100439.46
2022-08-07T17:48:34.442Z,100442.69
2022-08-07T17:51:59.601Z,100441.31
2022-08-07T17:55:16.657Z,100442.14
2022-08-07T17:59:08.998Z,100439.69
2022-08-07T18:02:23.199Z,100444.74
2022-08-07T18:06:03.327Z,100446.50
2022-08-07T18:09:06.212Z,100445.61
2022-08-07T18:12:37.730Z,100444.71
2022-08-07T18:16:06.523Z,100441.88
2022-08-07T18:21:05.946Z,100441.86
2022-08-07T18:23:04.715Z,100439.97
2022-08-07T18:26:15.138Z,100440.98
2022-08-07T18:30:31.972Z,100441.80
2022-08-07T18:34:37.649Z,100443.83
2022-08-07T18:38:59.080Z,100449.90
2022-08-07T18:41:46.360Z,100453.67
2022-08-07T18:45:44.066Z,100454.91
2022-08-07T18:50:04.970Z,100457.64
2022-08-07T18:52:34.836Z,100464.30
2022-08-07T18:55:56.140Z,100467.38
2022-08-07T18:59:47.685Z,100475.20
2022-08-07T19:02:59.739Z,100473.60
2022-08-07T19:06:16.398Z,100476.80
2022-08-07T19:09:57.568Z,100478.12
2022-08-07T19:13:21.755Z,100477.30
2022-08-07T19:17:00.765Z,100479.17
2022-08-07T19:20:29.698Z,100486.77
2022-08-07T19:23:59.021Z,100486.66
2022-08-07T19:28:30.701Z,100491.77
2022-08-07T19:31:03.675Z,100495.58
2022-08-07T19:34:05.216Z,100498.47
2022-08-07T19:37:17.610Z,100499.25
2022-08-07T19:40:31.390Z,100502.92
2022-08-07T19:43:52.002Z,100500.18
2022-08-07T19:47:14.205Z,100502.14
2022-08-07T19:50:41.227Z,100505.04
2022-08-07T19:54:32.943Z,100507.70
2022-08-07T19:58:02.925Z,100510.59
2022-08-07T20:00:55.399Z,100505.67
2022-08-07T20:04:01.136Z,100508.44
2022-08-07T20:07:11.563Z,100506.85
2022-08-07T20:10:37.931Z,100513.25
2022-08-07T20:13:53.230Z,100510.40
2022-08-07T20:17:00.917Z,100512.80
2022-08-07T20:20:09.110Z,100509.83
2022-08-07T20:23:40.905Z,100511.09
2022-08-07T20:26:54.792Z,100513.41
2022-08-07T20:30:00.985Z,100514.25
2022-08-07T20:33:09.090Z,100514.17
2022-08-07T20:36:30.379Z,100514.67
2022-08-07T20:40:02.756Z,100511.75
2022-08-07T20:43:01.432Z,100512.86
2022-08-07T20:46:26.827Z,100522.30
2022-08-07T20:49:59.135Z,100524.03
2022-08-07T20:52:57.419Z,100522.65
2022-08-07T20:56:03.015Z,100523.05
2022-08-07T20:59:06.739Z,100521.98
2022-08-07T21:02:53.959Z,100521.40
2022-08-07T21:06:21.564Z,100521.18
2022-08-07T21:09:51.944Z,100520.13
2022-08-07T21:12:59.840Z,100521.48
2022-08-07T21:16:05.425Z,100520.16
2022-08-07T21:19:14.010Z,100518.58
2022-08-07T21:22:19.102Z,100519.19
2022-08-07T21:26:01.395Z,100518.95
2022-08-07T21:29:18.694Z,100516.63
2022-08-07T21:32:46.970Z,100520.47
2022-08-07T21:36:31.861Z,100525.61
2022-08-07T21:39:51.778Z,100528.06
2022-08-07T21:43:05.101Z,100528.17
2022-08-07T21:46:25.106Z,100529.91
2022-08-07T21:50:02.771Z,100535.10
2022-08-07T21:53:13.372Z,100529.25
2022-08-07T21:56:36.483Z,100532.67
2022-08-07T22:00:04.072Z,100529.95
2022-08-07T22:03:30.829Z,100527.69
2022-08-07T22:06:50.483Z,100527.77
2022-08-07T22:09:59.822Z,100528.52
2022-08-07T22:13:09.579Z,100531.96
2022-08-07T22:16:43.410Z,100532.92
2022-08-07T22:19:59.397Z,100532.85
2022-08-07T22:23:25.509Z,100536.44
2022-08-07T22:26:44.679Z,100543.90
2022-08-07T22:30:03.880Z,100544.88
2022-08-07T22:33:17.953Z,100538.40
2022-08-07T22:37:09.339Z,100539.94
2022-08-07T22:40:25.350Z,100537.17
2022-08-07T22:43:39.679Z,100534.77
2022-08-07T22:47:03.860Z,100536.45
2022-08-07T22:50:40.783Z,100543.85
2022-08-07T22:54:07.559Z,100545.98
2022-08-07T22:57:25.870Z,100545.16
2022-08-07T23:00:43.735Z,100548.54
2022-08-07T23:04:05.023Z,100544.98
2022-08-07T23:07:41.393Z,100543.12
2022-08-07T23:10:57.462Z,100546.23
2022-08-07T23:14:33.659Z,100547.25
2022-08-07T23:17:50.545Z,100556.71
2022-08-07T23:21:00.273Z,100556.98
2022-08-07T23:24:19.206Z,100560.11
2022-08-07T23:28:21.575Z,100561.78
2022-08-07T23:32:49.272Z,100561.94
2022-08-07T23:35:24.194Z,100560.55
2022-08-07T23:38:45.677Z,100562.86
2022-08-07T23:42:26.125Z,100559.20
2022-08-07T23:46:02.900Z,100556.55
2022-08-07T23:49:25.727Z,100552.66
2022-08-07T23:52:59.867Z,100553.45
2022-08-07T23:56:31.397Z,100553.52
